sensor_id;sensor_type;location;lat;lon;timestamp;pressure;altitude;pressure_sealevel;temperature;humidity
71057;BME280;58380;48.312;9.246;2023-02-23T07:00:13;93219.22;;;4.30;100.00
71057;BME280;58380;48.312;9.246;2023-02-23T07:02:39;93250.31;;;4.56;100.00
71057;BME280;58380;48.312;9.246;2023-02-23T07:05:06;93144.97;;;3.91;100.00
71057;BME280;58380;48.312;9.246;2023-02-23T07:07:32;93240.53;;;4.51;100.00
71057;BME280;58380;48.312;9.246;2023-02-23T07:09:58;93257.94;;;4.57;100.00
71057;BME280;58380;48.312;9.246;2023-02-23T07:12:23;93242.16;;;4.52;100.00
71057;BME280;58380;48.312;9.246;2023-02-23T07:14:49;93243.84;;;4.58;100.00
71057;BME280;58380;48.312;9.246;2023-02-23T07:17:14;93246.56;;;4.63;100.00
71057;BME280;58380;48.312;9.246;2023-02-23T07:19:40;93237.13;;;4.62;100.00
71057;BME280;58380;48.312;9.246;2023-02-23T07:22:06;93272.19;;;4.90;100.00
71057;BME280;58380;48.312;9.246;2023-02-23T07:24:31;93219.53;;;4.58;100.00
71057;BME280;58380;48.312;9.246;2023-02-23T07:26:57;93259.44;;;4.93;100.00
71057;BME280;58380;48.312;9.246;2023-02-23T07:29:22;93227.19;;;4.76;100.00
71057;BME280;58380;48.312;9.246;2023-02-23T07:31:48;93187.69;;;4.61;100.00
71057;BME280;58380;48.312;9.246;2023-02-23T07:34:14;93270.38;;;5.19;100.00
71057;BME280;58380;48.312;9.246;2023-02-23T07:36:40;93268.44;;;5.26;100.00
71057;BME280;58380;48.312;9.246;2023-02-23T07:39:06;93250.03;;;5.21;100.00
71057;BME280;58380;48.312;9.246;2023-02-23T07:41:31;93271.25;;;5.36;100.00
71057;BME280;58380;48.312;9.246;2023-02-23T07:43:57;93265.38;;;5.29;100.00
71057;BME280;58380;48.312;9.246;2023-02-23T07:46:24;93281.66;;;5.48;100.00
71057;BME280;58380;48.312;9.246;2023-02-23T07:48:49;93274.38;;;5.50;100.00
71057;BME280;58380;48.312;9.246;2023-02-23T07:51:15;93258.59;;;5.45;100.00
71057;BME280;58380;48.312;9.246;2023-02-23T07:53:42;93259.72;;;5.49;100.00
71057;BME280;58380;48.312;9.246;2023-02-23T07:56:09;93258.44;;;5.52;100.00
71057;BME280;58380;48.312;9.246;2023-02-23T07:58:39;93281.31;;;5.73;100.00
71057;BME280;58380;48.312;9.246;2023-02-23T08:01:07;93277.50;;;5.81;100.00
71057;BME280;58380;48.312;9.246;2023-02-23T08:03:33;93263.94;;;5.84;100.00
71057;BME280;58380;48.312;9.246;2023-02-23T08:05:59;93259.34;;;5.91;100.00
71057;BME280;58380;48.312;9.246;2023-02-23T08:08:25;93257.22;;;5.88;100.00
71057;BME280;58380;48.312;9.246;2023-02-23T08:10:58;93270.34;;;6.05;100.00
71057;BME280;58380;48.312;9.246;2023-02-23T08:13:25;93226.75;;;5.82;100.00
71057;BME280;58380;48.312;9.246;2023-02-23T08:15:50;93279.56;;;6.08;100.00
71057;BME280;58380;48.312;9.246;2023-02-23T08:18:16;93250.56;;;5.97;100.00
71057;BME280;58380;48.312;9.246;2023-02-23T08:20:41;93227.03;;;5.69;100.00
71057;BME280;58380;48.312;9.246;2023-02-23T08:23:07;93257.41;;;5.98;100.00
71057;BME280;58380;48.312;9.246;2023-02-23T08:25:32;93262.63;;;5.98;100.00
71057;BME280;58380;48.312;9.246;2023-02-23T08:27:58;93255.81;;;5.97;100.00
71057;BME280;58380;48.312;9.246;2023-02-23T08:30:28;93281.69;;;6.11;100.00
71057;BME280;58380;48.312;9.246;2023-02-23T08:32:54;93265.34;;;6.03;100.00
71057;BME280;58380;48.312;9.246;2023-02-23T08:35:20;93247.47;;;6.00;100.00
71057;BME280;58380;48.312;9.246;2023-02-23T08:37:45;93279.72;;;6.18;100.00
71057;BME280;58380;48.312;9.246;2023-02-23T08:40:11;93280.84;;;6.22;100.00
71057;BME280;58380;48.312;9.246;2023-02-23T08:42:40;93255.75;;;6.09;100.00
71057;BME280;58380;48.312;9.246;2023-02-23T08:45:06;93276.31;;;6.17;100.00
71057;BME280;58380;48.312;9.246;2023-02-23T08:47:32;93262.72;;;6.20;100.00
71057;BME280;58380;48.312;9.246;2023-02-23T08:49:58;93276.53;;;6.33;100.00
71057;BME280;58380;48.312;9.246;2023-02-23T08:52:26;93264.13;;;6.28;100.00
71057;BME280;58380;48.312;9.246;2023-02-23T08:54:53;93272.41;;;6.37;100.00
71057;BME280;58380;48.312;9.246;2023-02-23T08:57:19;93270.94;;;6.46;100.00
71057;BME280;58380;48.312;9.246;2023-02-23T08:59:45;93239.59;;;6.34;100.00
71057;BME280;58380;48.312;9.246;2023-02-23T09:02:11;93268.00;;;6.59;100.00
71057;BME280;58380;48.312;9.246;2023-02-23T09:04:38;93244.88;;;6.56;100.00
71057;BME280;58380;48.312;9.246;2023-02-23T09:07:06;93251.34;;;6.70;100.00
71057;BME280;58380;48.312;9.246;2023-02-23T09:09:34;93253.09;;;6.82;100.00
71057;BME280;58380;48.312;9.246;2023-02-23T09:11:59;93270.34;;;7.00;100.00
71057;BME280;58380;48.312;9.246;2023-02-23T09:14:26;93257.59;;;6.86;100.00
71057;BME280;58380;48.312;9.246;2023-02-23T09:16:52;93254.38;;;6.79;100.00
71057;BME280;58380;48.312;9.246;2023-02-23T09:19:17;93264.25;;;6.94;100.00
71057;BME280;58380;48.312;9.246;2023-02-23T09:21:44;93254.00;;;6.93;100.00
71057;BME280;58380;48.312;9.246;2023-02-23T09:24:10;93271.44;;;7.04;100.00
71057;BME280;58380;48.312;9.246;2023-02-23T09:26:35;93276.22;;;7.07;100.00
71057;BME280;58380;48.312;9.246;2023-02-23T09:29:04;93284.94;;;7.12;100.00
71057;BME280;58380;48.312;9.246;2023-02-23T09:31:31;93276.00;;;7.13;100.00
71057;BME280;58380;48.312;9.246;2023-02-23T09:33:56;93263.66;;;7.09;100.00
71057;BME280;58380;48.312;9.246;2023-02-23T09:36:25;93277.56;;;7.31;100.00
71057;BME280;58380;48.312;9.246;2023-02-23T09:38:54;93286.88;;;7.44;100.00
71057;BME280;58380;48.312;9.246;2023-02-23T09:43:58;93280.50;;;7.62;100.00
71057;BME280;58380;48.312;9.246;2023-02-23T09:46:47;93275.84;;;7.69;99.38
71057;BME280;58380;48.312;9.246;2023-02-23T09:49:38;93257.13;;;7.66;98.90
71057;BME280;58380;48.312;9.246;2023-02-23T09:52:14;93279.63;;;7.84;99.15
71057;BME280;58380;48.312;9.246;2023-02-23T09:54:43;93270.69;;;7.80;99.49
71057;BME280;58380;48.312;9.246;2023-02-23T09:57:15;93272.59;;;7.89;98.62
71057;BME280;58380;48.312;9.246;2023-02-23T09:59:44;93279.53;;;8.00;98.67
71057;BME280;58380;48.312;9.246;2023-02-23T10:02:35;93288.00;;;8.08;98.74
71057;BME280;58380;48.312;9.246;2023-02-23T10:05:09;93269.91;;;8.11;97.59
71057;BME280;58380;48.312;9.246;2023-02-23T10:07:49;93272.31;;;8.18;97.37
71057;BME280;58380;48.312;9.246;2023-02-23T10:10:38;93280.84;;;8.35;96.19
71057;BME280;58380;48.312;9.246;2023-02-23T10:16:35;93281.75;;;8.46;94.15
71057;BME280;58380;48.312;9.246;2023-02-23T10:19:16;93244.94;;;8.14;94.14
71057;BME280;58380;48.312;9.246;2023-02-23T10:22:02;93247.13;;;8.27;93.59
71057;BME280;58380;48.312;9.246;2023-02-23T10:24:36;93277.53;;;8.45;93.84
71057;BME280;58380;48.312;9.246;2023-02-23T10:27:09;93243.41;;;8.23;92.79
71057;BME280;58380;48.312;9.246;2023-02-23T10:34:56;93257.84;;;8.53;91.77
71057;BME280;58380;48.312;9.246;2023-02-23T10:37:22;93216.78;;;8.41;91.36
71057;BME280;58380;48.312;9.246;2023-02-23T10:39:51;93245.03;;;8.61;89.48
71057;BME280;58380;48.312;9.246;2023-02-23T10:42:26;93248.78;;;8.76;89.35
71057;BME280;58380;48.312;9.246;2023-02-23T10:44:57;93267.56;;;8.95;89.70
71057;BME280;58380;48.312;9.246;2023-02-23T10:47:29;93268.41;;;9.05;88.82
71057;BME280;58380;48.312;9.246;2023-02-23T10:49:57;93228.09;;;9.00;88.60
71057;BME280;58380;48.312;9.246;2023-02-23T10:52:40;93270.34;;;9.36;88.38
71057;BME280;58380;48.312;9.246;2023-02-23T10:55:28;93260.41;;;9.53;86.18
71057;BME280;58380;48.312;9.246;2023-02-23T10:58:14;93258.06;;;9.57;86.56
71057;BME280;58380;48.312;9.246;2023-02-23T11:00:58;93256.97;;;9.53;85.67
71057;BME280;58380;48.312;9.246;2023-02-23T11:03:31;93254.34;;;9.53;87.06
71057;BME280;58380;48.312;9.246;2023-02-23T11:05:58;93261.72;;;9.61;84.98
71057;BME280;58380;48.312;9.246;2023-02-23T11:08:32;93249.09;;;9.73;86.27
71057;BME280;58380;48.312;9.246;2023-02-23T11:13:35;93253.38;;;10.00;85.72
71057;BME280;58380;48.312;9.246;2023-02-23T11:16:06;93238.06;;;9.97;82.52
71057;BME280;58380;48.312;9.246;2023-02-23T11:18:35;93243.34;;;10.02;82.46
71057;BME280;58380;48.312;9.246;2023-02-23T11:21:02;93242.81;;;9.89;81.90
71057;BME280;58380;48.312;9.246;2023-02-23T11:23:34;93168.44;;;9.31;82.78
71057;BME280;58380;48.312;9.246;2023-02-23T11:26:18;93191.06;;;9.32;83.43
71057;BME280;58380;48.312;9.246;2023-02-23T11:31:57;93232.47;;;9.57;86.04
71057;BME280;58380;48.312;9.246;2023-02-23T11:34:30;93205.88;;;9.48;83.29
71057;BME280;58380;48.312;9.246;2023-02-23T11:37:18;93232.25;;;9.69;82.78
71057;BME280;58380;48.312;9.246;2023-02-23T11:39:53;93190.56;;;9.45;83.59
71057;BME280;58380;48.312;9.246;2023-02-23T11:42:30;93221.97;;;9.72;83.50
71057;BME280;58380;48.312;9.246;2023-02-23T11:45:15;93220.94;;;9.79;85.51
71057;BME280;58380;48.312;9.246;2023-02-23T11:47:47;93193.25;;;9.71;84.42
71057;BME280;58380;48.312;9.246;2023-02-23T11:50:34;93217.22;;;9.85;81.05
71057;BME280;58380;48.312;9.246;2023-02-23T11:55:31;93208.25;;;9.81;78.80
71057;BME280;58380;48.312;9.246;2023-02-23T12:00:57;93211.19;;;9.84;78.85
71057;BME280;58380;48.312;9.246;2023-02-23T12:03:26;93209.06;;;9.81;79.35
71057;BME280;58380;48.312;9.246;2023-02-23T12:05:57;93212.50;;;9.82;80.56
71057;BME280;58380;48.312;9.246;2023-02-23T12:08:38;93211.72;;;9.76;79.73
71057;BME280;58380;48.312;9.246;2023-02-23T12:11:14;93192.44;;;9.60;80.11
71057;BME280;58380;48.312;9.246;2023-02-23T12:13:51;93186.91;;;9.57;80.53
71057;BME280;58380;48.312;9.246;2023-02-23T12:16:37;93200.63;;;9.69;80.51
71057;BME280;58380;48.312;9.246;2023-02-23T12:19:39;93161.88;;;9.54;80.66
71057;BME280;58380;48.312;9.246;2023-02-23T12:22:12;93193.75;;;9.73;79.59
71057;BME280;58380;48.312;9.246;2023-02-23T12:25:03;93199.56;;;9.80;79.84
71057;BME280;58380;48.312;9.246;2023-02-23T12:27:58;93197.47;;;9.82;80.26
71057;BME280;58380;48.312;9.246;2023-02-23T12:30:40;93198.78;;;9.80;80.84
71057;BME280;58380;48.312;9.246;2023-02-23T12:35:56;93174.50;;;9.57;78.24
71057;BME280;58380;48.312;9.246;2023-02-23T12:38:38;93186.91;;;9.67;78.35
71057;BME280;58380;48.312;9.246;2023-02-23T12:41:17;93191.66;;;9.65;79.10
71057;BME280;58380;48.312;9.246;2023-02-23T12:43:58;93170.03;;;9.53;80.10
71057;BME280;58380;48.312;9.246;2023-02-23T12:46:38;93156.84;;;9.47;80.02
71057;BME280;58380;48.312;9.246;2023-02-23T12:49:35;93188.75;;;9.61;81.38
71057;BME280;58380;48.312;9.246;2023-02-23T12:52:17;93194.53;;;9.58;81.02
71057;BME280;58380;48.312;9.246;2023-02-23T12:54:46;93186.38;;;9.49;81.94
71057;BME280;58380;48.312;9.246;2023-02-23T12:57:13;93191.88;;;9.53;82.79
71057;BME280;58380;48.312;9.246;2023-02-23T13:03:04;93184.75;;;9.43;85.37
71057;BME280;58380;48.312;9.246;2023-02-23T13:05:38;93160.00;;;9.24;87.28
71057;BME280;58380;48.312;9.246;2023-02-23T13:08:21;93153.09;;;9.07;88.26
71057;BME280;58380;48.312;9.246;2023-02-23T13:11:05;93184.19;;;9.21;88.57
71057;BME280;58380;48.312;9.246;2023-02-23T13:14:08;93174.97;;;9.18;86.76
71057;BME280;58380;48.312;9.246;2023-02-23T13:16:49;93176.00;;;9.12;86.65
71057;BME280;58380;48.312;9.246;2023-02-23T13:19:21;93176.25;;;9.05;85.37
71057;BME280;58380;48.312;9.246;2023-02-23T13:23:02;93153.81;;;8.88;83.72
71057;BME280;58380;48.312;9.246;2023-02-23T13:28:16;93158.28;;;8.82;88.25
71057;BME280;58380;48.312;9.246;2023-02-23T13:30:47;93169.84;;;8.81;92.08
71057;BME280;58380;48.312;9.246;2023-02-23T13:33:27;93176.94;;;8.75;95.34
71057;BME280;58380;48.312;9.246;2023-02-23T13:36:00;93177.97;;;8.69;96.41
71057;BME280;58380;48.312;9.246;2023-02-23T13:38:37;93161.84;;;8.55;97.83
71057;BME280;58380;48.312;9.246;2023-02-23T13:41:14;93182.44;;;8.69;98.38
71057;BME280;58380;48.312;9.246;2023-02-23T13:44:10;93177.72;;;8.76;97.98
71057;BME280;58380;48.312;9.246;2023-02-23T13:47:15;93178.03;;;8.84;98.12
71057;BME280;58380;48.312;9.246;2023-02-23T13:50:02;93186.53;;;9.02;97.43
71057;BME280;58380;48.312;9.246;2023-02-23T13:52:51;93174.44;;;9.11;97.49
71057;BME280;58380;48.312;9.246;2023-02-23T14:00:18;93172.09;;;9.20;95.03
71057;BME280;58380;48.312;9.246;2023-02-23T14:02:45;93177.09;;;9.16;93.74
71057;BME280;58380;48.312;9.246;2023-02-23T14:05:16;93180.75;;;9.10;93.77
71057;BME280;58380;48.312;9.246;2023-02-23T14:07:47;93166.00;;;9.09;91.78
71057;BME280;58380;48.312;9.246;2023-02-23T14:10:25;93170.19;;;9.05;89.76
71057;BME280;58380;48.312;9.246;2023-02-23T14:23:35;93159.38;;;8.91;89.95
71057;BME280;58380;48.312;9.246;2023-02-23T14:34:52;93170.00;;;9.27;89.88
71057;BME280;58380;48.312;9.246;2023-02-23T14:37:34;93170.78;;;9.33;90.52
71057;BME280;58380;48.312;9.246;2023-02-23T14:40:17;93165.53;;;9.38;89.25
71057;BME280;58380;48.312;9.246;2023-02-23T14:42:50;93168.16;;;9.33;89.82
71057;BME280;58380;48.312;9.246;2023-02-23T14:45:23;93160.50;;;9.26;87.83
71057;BME280;58380;48.312;9.246;2023-02-23T14:48:06;93157.06;;;9.20;88.43
71057;BME280;58380;48.312;9.246;2023-02-23T14:50:41;93135.97;;;9.10;87.76
71057;BME280;58380;48.312;9.246;2023-02-23T14:53:17;93148.91;;;9.17;88.36
71057;BME280;58380;48.312;9.246;2023-02-23T14:55:45;93139.38;;;9.00;89.41
71057;BME280;58380;48.312;9.246;2023-02-23T14:58:26;93169.44;;;9.15;90.12
71057;BME280;58380;48.312;9.246;2023-02-23T15:00:55;93166.00;;;9.09;90.63
71057;BME280;58380;48.312;9.246;2023-02-23T15:03:20;93140.97;;;9.01;91.72
71057;BME280;58380;48.312;9.246;2023-02-23T15:05:57;93139.38;;;9.00;92.46
71057;BME280;58380;48.312;9.246;2023-02-23T15:08:26;93150.97;;;9.04;92.80
71057;BME280;58380;48.312;9.246;2023-02-23T15:11:10;93166.03;;;9.14;93.46
71057;BME280;58380;48.312;9.246;2023-02-23T15:13:40;93163.41;;;9.19;93.49
71057;BME280;58380;48.312;9.246;2023-02-23T15:16:23;93135.19;;;9.04;93.33
71057;BME280;58380;48.312;9.246;2023-02-23T15:19:29;93168.94;;;9.28;93.27
71057;BME280;58380;48.312;9.246;2023-02-23T15:21:59;93167.59;;;9.25;93.52
71057;BME280;58380;48.312;9.246;2023-02-23T15:24:31;93167.06;;;9.23;93.84
71057;BME280;58380;48.312;9.246;2023-02-23T15:27:05;93163.41;;;9.19;93.68
71057;BME280;58380;48.312;9.246;2023-02-23T15:29:39;93153.09;;;9.07;94.19
71057;BME280;58380;48.312;9.246;2023-02-23T15:32:31;93171.81;;;9.16;93.87
71057;BME280;58380;48.312;9.246;2023-02-23T15:35:02;93132.53;;;8.89;94.36
71057;BME280;58380;48.312;9.246;2023-02-23T15:37:33;93124.84;;;8.82;95.05
71057;BME280;58380;48.312;9.246;2023-02-23T15:40:06;93155.94;;;8.96;95.10
71057;BME280;58380;48.312;9.246;2023-02-23T15:42:42;93167.78;;;8.93;95.55
71057;BME280;58380;48.312;9.246;2023-02-23T15:48:22;93162.75;;;8.76;95.66
71057;BME280;58380;48.312;9.246;2023-02-23T15:50:53;93174.88;;;8.88;96.04
71057;BME280;58380;48.312;9.246;2023-02-23T15:53:37;93176.72;;;8.82;96.42
71057;BME280;58380;48.312;9.246;2023-02-23T15:56:27;93167.50;;;8.79;97.40
71057;BME280;58380;48.312;9.246;2023-02-23T15:59:04;93172.97;;;8.68;98.29
71057;BME280;58380;48.312;9.246;2023-02-23T16:01:41;93178.19;;;8.62;99.30
71057;BME280;58380;48.312;9.246;2023-02-23T16:07:24;93187.09;;;8.51;100.00
71057;BME280;58380;48.312;9.246;2023-02-23T16:10:03;93175.53;;;8.52;99.49
71057;BME280;58380;48.312;9.246;2023-02-23T16:12:46;93168.38;;;8.42;99.19
71057;BME280;58380;48.312;9.246;2023-02-23T16:15:31;93166.44;;;8.33;99.51
71057;BME280;58380;48.312;9.246;2023-02-23T16:18:00;93179.34;;;8.34;99.81
71057;BME280;58380;48.312;9.246;2023-02-23T16:20:34;93167.47;;;8.27;100.00
71057;BME280;58380;48.312;9.246;2023-02-23T16:23:04;93144.22;;;8.08;100.00
71057;BME280;58380;48.312;9.246;2023-02-23T16:25:32;93163.97;;;8.16;100.00
71057;BME280;58380;48.312;9.246;2023-02-23T16:28:07;93167.69;;;8.20;100.00
71057;BME280;58380;48.312;9.246;2023-02-23T16:30:41;93158.19;;;8.14;100.00
71057;BME280;58380;48.312;9.246;2023-02-23T16:33:20;93172.94;;;8.20;100.00
71057;BME280;58380;48.312;9.246;2023-02-23T16:36:36;93168.72;;;8.14;100.00
71057;BME280;58380;48.312;9.246;2023-02-23T16:41:18;93184.50;;;8.14;100.00
71057;BME280;58380;48.312;9.246;2023-02-23T16:43:47;93188.94;;;8.13;100.00
71057;BME280;58380;48.312;9.246;2023-02-23T16:46:18;93184.41;;;8.04;100.00
71057;BME280;58380;48.312;9.246;2023-02-23T16:48:47;93174.53;;;7.84;100.00
71057;BME280;58380;48.312;9.246;2023-02-23T16:51:18;93196.94;;;7.91;100.00
71057;BME280;58380;48.312;9.246;2023-02-23T16:53:45;93193.34;;;7.70;100.00
71057;BME280;58380;48.312;9.246;2023-02-23T16:56:13;93107.94;;;6.76;100.00
71057;BME280;58380;48.312;9.246;2023-02-23T16:58:46;93203.69;;;7.23;100.00
71057;BME280;58380;48.312;9.246;2023-02-23T17:01:19;93212.31;;;6.96;100.00
71057;BME280;58380;48.312;9.246;2023-02-23T17:03:45;93215.31;;;6.83;100.00
71057;BME280;58380;48.312;9.246;2023-02-23T17:06:11;93215.00;;;6.79;100.00
71057;BME280;58380;48.312;9.246;2023-02-23T17:08:37;93206.69;;;6.65;100.00
71057;BME280;58380;48.312;9.246;2023-02-23T17:11:03;93220.72;;;6.76;100.00
71057;BME280;58380;48.312;9.246;2023-02-23T17:13:30;93184.88;;;6.60;100.00
71057;BME280;58380;48.312;9.246;2023-02-23T17:16:02;93196.53;;;6.69;100.00
71057;BME280;58380;48.312;9.246;2023-02-23T17:18:34;93190.13;;;6.60;100.00
71057;BME280;58380;48.312;9.246;2023-02-23T17:21:05;93207.56;;;6.71;100.00
71057;BME280;58380;48.312;9.246;2023-02-23T17:23:34;93204.56;;;6.62;100.00
71057;BME280;58380;48.312;9.246;2023-02-23T17:26:08;93197.50;;;6.63;100.00
71057;BME280;58380;48.312;9.246;2023-02-23T17:28:35;93194.75;;;6.53;100.00
71057;BME280;58380;48.312;9.246;2023-02-23T17:31:01;93198.34;;;6.46;100.00
71057;BME280;58380;48.312;9.246;2023-02-23T17:33:28;93210.09;;;6.44;100.00
71057;BME280;58380;48.312;9.246;2023-02-23T17:35:59;93174.25;;;6.11;100.00
71057;BME280;58380;48.312;9.246;2023-02-23T17:38:25;93120.56;;;5.74;100.00
71057;BME280;58380;48.312;9.246;2023-02-23T17:41:09;93198.53;;;6.23;100.00
71057;BME280;58380;48.312;9.246;2023-02-23T17:43:42;93189.50;;;6.14;100.00
71057;BME280;58380;48.312;9.246;2023-02-23T17:46:08;93175.69;;;6.01;100.00
71057;BME280;58380;48.312;9.246;2023-02-23T17:48:34;93170.47;;;6.01;100.00
71057;BME280;58380;48.312;9.246;2023-02-23T17:51:05;93185.72;;;6.04;100.00
71057;BME280;58380;48.312;9.246;2023-02-23T17:53:34;93198.97;;;6.15;100.00
71057;BME280;58380;48.312;9.246;2023-02-23T17:56:00;93193.31;;;6.06;100.00
71057;BME280;58380;48.312;9.246;2023-02-23T17:58:25;93115.81;;;5.54;100.00
71057;BME280;58380;48.312;9.246;2023-02-23T18:00:57;93152.59;;;5.81;100.00
71057;BME280;58380;48.312;9.246;2023-02-23T18:03:27;93170.69;;;5.83;100.00
71057;BME280;58380;48.312;9.246;2023-02-23T18:06:01;93207.47;;;6.05;100.00
71057;BME280;58380;48.312;9.246;2023-02-23T18:08:35;93211.84;;;5.99;100.00
71057;BME280;58380;48.312;9.246;2023-02-23T18:11:02;93207.31;;;5.95;100.00
71057;BME280;58380;48.312;9.246;2023-02-23T18:13:29;93201.34;;;5.82;100.00
71057;BME280;58380;48.312;9.246;2023-02-23T18:16:00;93221.03;;;5.85;100.00
71057;BME280;58380;48.312;9.246;2023-02-23T18:18:32;93223.97;;;5.72;100.00
71057;BME280;58380;48.312;9.246;2023-02-23T18:20:58;93208.63;;;5.47;100.00
71057;BME280;58380;48.312;9.246;2023-02-23T18:23:26;93235.69;;;5.52;100.00
71057;BME280;58380;48.312;9.246;2023-02-23T18:25:54;93218.91;;;5.36;100.00
71057;BME280;58380;48.312;9.246;2023-02-23T18:28:29;93185.00;;;5.13;100.00
71057;BME280;58380;48.312;9.246;2023-02-23T18:30:54;93228.47;;;5.31;100.00
71057;BME280;58380;48.312;9.246;2023-02-23T18:33:21;93245.44;;;5.28;100.00
71057;BME280;58380;48.312;9.246;2023-02-23T18:35:46;93246.72;;;5.26;100.00
71057;BME280;58380;48.312;9.246;2023-02-23T18:38:12;93220.50;;;5.09;100.00
71057;BME280;58380;48.312;9.246;2023-02-23T18:40:38;93246.06;;;5.18;100.00
71057;BME280;58380;48.312;9.246;2023-02-23T18:43:04;93232.66;;;5.15;100.00
71057;BME280;58380;48.312;9.246;2023-02-23T18:45:30;93225.28;;;5.12;100.00
71057;BME280;58380;48.312;9.246;2023-02-23T18:47:56;93233.13;;;5.12;100.00
71057;BME280;58380;48.312;9.246;2023-02-23T18:50:22;93239.72;;;5.14;100.00
71057;BME280;58380;48.312;9.246;2023-02-23T18:52:51;93219.56;;;4.86;100.00
71057;BME280;58380;48.312;9.246;2023-02-23T18:55:19;93166.56;;;4.50;100.00
71057;BME280;58380;48.312;9.246;2023-02-23T18:57:46;93227.06;;;4.83;100.00
71057;BME280;58380;48.312;9.246;2023-02-23T19:00:16;93228.09;;;4.82;100.00
71057;BME280;58380;48.312;9.246;2023-02-23T19:02:43;93212.78;;;4.73;100.00
71057;BME280;58380;48.312;9.246;2023-02-23T19:05:10;93187.50;;;4.50;100.00
71057;BME280;58380;48.312;9.246;2023-02-23T19:07:38;93150.63;;;4.11;100.00
71057;BME280;58380;48.312;9.246;2023-02-23T19:10:09;93199.00;;;4.38;100.00
71057;BME280;58380;48.312;9.246;2023-02-23T19:12:39;93205.78;;;4.39;100.00
71057;BME280;58380;48.312;9.246;2023-02-23T19:15:06;93176.53;;;4.25;100.00
71057;BME280;58380;48.312;9.246;2023-02-23T19:17:33;93218.63;;;4.52;100.00
71057;BME280;58380;48.312;9.246;2023-02-23T19:19:59;93224.53;;;4.47;100.00
71057;BME280;58380;48.312;9.246;2023-02-23T19:22:25;93221.94;;;4.47;100.00
71057;BME280;58380;48.312;9.246;2023-02-23T19:24:52;93156.66;;;3.88;100.00
71057;BME280;58380;48.312;9.246;2023-02-23T19:27:17;93190.25;;;3.97;100.00
71057;BME280;58380;48.312;9.246;2023-02-23T19:29:44;93204.69;;;3.99;100.00
71057;BME280;58380;48.312;9.246;2023-02-23T19:32:13;93204.34;;;3.96;100.00
71057;BME280;58380;48.312;9.246;2023-02-23T19:34:41;93216.84;;;3.94;100.00
71057;BME280;58380;48.312;9.246;2023-02-23T19:37:07;93209.91;;;3.87;100.00
71057;BME280;58380;48.312;9.246;2023-02-23T19:39:34;93219.00;;;3.97;100.00
71057;BME280;58380;48.312;9.246;2023-02-23T19:42:00;93189.94;;;3.70;100.00
71057;BME280;58380;48.312;9.246;2023-02-23T19:44:26;93188.75;;;3.54;100.00
71057;BME280;58380;48.312;9.246;2023-02-23T19:46:52;93225.31;;;3.65;100.00
71057;BME280;58380;48.312;9.246;2023-02-23T19:49:17;93225.31;;;3.65;100.00
71057;BME280;58380;48.312;9.246;2023-02-23T19:51:42;93221.34;;;3.63;100.00
71057;BME280;58380;48.312;9.246;2023-02-23T19:54:09;93171.47;;;3.29;100.00
71057;BME280;58380;48.312;9.246;2023-02-23T19:56:35;93214.16;;;3.46;100.00
71057;BME280;58380;48.312;9.246;2023-02-23T19:59:02;93238.00;;;3.50;100.00
71057;BME280;58380;48.312;9.246;2023-02-23T20:01:28;93228.13;;;3.40;100.00
71057;BME280;58380;48.312;9.246;2023-02-23T20:03:56;93232.19;;;3.36;100.00
71057;BME280;58380;48.312;9.246;2023-02-23T20:06:27;93208.28;;;3.09;100.00
71057;BME280;58380;48.312;9.246;2023-02-23T20:08:59;93227.25;;;3.16;100.00
71057;BME280;58380;48.312;9.246;2023-02-23T20:11:28;93235.38;;;3.08;100.00
71057;BME280;58380;48.312;9.246;2023-02-23T20:13:57;93228.72;;;3.12;100.00
71057;BME280;58380;48.312;9.246;2023-02-23T20:16:24;93243.13;;;3.15;100.00
71057;BME280;58380;48.312;9.246;2023-02-23T20:18:54;93236.34;;;3.26;100.00
71057;BME280;58380;48.312;9.246;2023-02-23T20:21:23;93232.50;;;3.28;100.00
71057;BME280;58380;48.312;9.246;2023-02-23T20:23:52;93205.47;;;3.11;100.00
71057;BME280;58380;48.312;9.246;2023-02-23T20:26:21;93230.09;;;3.27;100.00
71057;BME280;58380;48.312;9.246;2023-02-23T20:28:53;93217.31;;;3.25;100.00
71057;BME280;58380;48.312;9.246;2023-02-23T20:31:26;93234.34;;;3.39;100.00
71057;BME280;58380;48.312;9.246;2023-02-23T20:33:56;93210.41;;;3.31;100.00
71057;BME280;58380;48.312;9.246;2023-02-23T20:36:25;93227.22;;;3.46;100.00
71057;BME280;58380;48.312;9.246;2023-02-23T20:38:51;93224.19;;;3.50;100.00
71057;BME280;58380;48.312;9.246;2023-02-23T20:41:17;93226.22;;;3.59;100.00
71057;BME280;58380;48.312;9.246;2023-02-23T20:43:43;93227.81;;;3.60;100.00
71057;BME280;58380;48.312;9.246;2023-02-23T20:46:12;93229.06;;;3.58;100.00
71057;BME280;58380;48.312;9.246;2023-02-23T20:48:40;93176.56;;;3.24;100.00
71057;BME280;58380;48.312;9.246;2023-02-23T20:51:07;93228.81;;;3.48;100.00
71057;BME280;58380;48.312;9.246;2023-02-23T20:53:38;93142.25;;;2.97;100.00
71057;BME280;58380;48.312;9.246;2023-02-23T20:56:05;93214.72;;;3.37;100.00
71057;BME280;58380;48.312;9.246;2023-02-23T20:58:33;93177.56;;;3.11;100.00
71057;BME280;58380;48.312;9.246;2023-02-23T21:00:59;93210.28;;;3.26;100.00
71057;BME280;58380;48.312;9.246;2023-02-23T21:03:30;93227.06;;;3.30;100.00
71057;BME280;58380;48.312;9.246;2023-02-23T21:05:56;93202.63;;;3.12;100.00
71057;BME280;58380;48.312;9.246;2023-02-23T21:08:22;93203.63;;;3.11;100.00
71057;BME280;58380;48.312;9.246;2023-02-23T21:10:47;93216.03;;;3.16;100.00
71057;BME280;58380;48.312;9.246;2023-02-23T21:13:14;93213.88;;;3.13;100.00
71057;BME280;58380;48.312;9.246;2023-02-23T21:15:42;93184.41;;;2.94;100.00
71057;BME280;58380;48.312;9.246;2023-02-23T21:18:09;93179.22;;;2.94;100.00
71057;BME280;58380;48.312;9.246;2023-02-23T21:20:39;93206.56;;;3.03;100.00
71057;BME280;58380;48.312;9.246;2023-02-23T21:23:05;93205.13;;;3.07;100.00
71057;BME280;58380;48.312;9.246;2023-02-23T21:25:31;93205.34;;;3.06;100.00
71057;BME280;58380;48.312;9.246;2023-02-23T21:27:57;93187.34;;;2.86;100.00
71057;BME280;58380;48.312;9.246;2023-02-23T21:30:26;93210.16;;;3.02;100.00
71057;BME280;58380;48.312;9.246;2023-02-23T21:32:52;93213.09;;;2.94;100.00